Time;durP1;ratioP1;P1;durP2;ratioP2;P2;SDS_P1;SDS_P2;PMS_P1;PMS_P2;Temp;Humidity;BMP_temperature;BMP_pressure;BME280_temperature;BME280_humidity;BME280_pressure;Samples;Min_cycle;Max_cycle;Signal;HPM_P1;HPM_P2
2021/03/13 00:00:05;;;;;;;7.10;5.67;;;;;;;6.00;67.60;99472.75;5060161;28;20196;-72
2021/03/13 00:02:30;;;;;;;5.33;4.80;;;;;;;6.15;66.82;99479.75;5060106;28;20172;-72
2021/03/13 00:04:56;;;;;;;5.10;4.40;;;;;;;6.13;68.14;99465.06;5059865;28;20416;-71
2021/03/13 00:07:21;;;;;;;6.23;4.17;;;;;;;5.86;68.29;99451.06;5059900;28;20169;-71
2021/03/13 00:09:46;;;;;;;5.60;5.10;;;;;;;6.39;66.97;99441.97;5060268;28;20178;-71
2021/03/13 00:12:12;;;;;;;5.27;4.80;;;;;;;6.26;66.55;99443.59;5059758;28;20467;-71
2021/03/13 00:14:37;;;;;;;5.30;4.90;;;;;;;6.31;66.60;99444.50;5060365;28;20260;-74
2021/03/13 00:17:02;;;;;;;6.27;5.60;;;;;;;6.17;66.85;99447.00;5060584;28;20170;-71
2021/03/13 00:19:27;;;;;;;9.00;6.00;;;;;;;6.35;67.04;99433.31;5059606;28;20184;-70
2021/03/13 00:21:53;;;;;;;5.67;5.07;;;;;;;6.61;65.64;99429.13;5059500;28;20165;-72
2021/03/13 00:24:18;;;;;;;5.53;4.93;;;;;;;6.42;66.82;99438.53;5059982;28;20575;-71
2021/03/13 00:26:43;;;;;;;5.80;5.23;;;;;;;6.51;66.80;99425.63;5059156;28;20237;-72
2021/03/13 00:29:09;;;;;;;5.73;5.17;;;;;;;6.11;67.05;99431.44;5060028;28;20185;-71
2021/03/13 00:31:34;;;;;;;5.80;5.30;;;;;;;6.56;65.76;99434.25;5060103;28;20194;-72
2021/03/13 00:33:59;;;;;;;7.40;5.90;;;;;;;6.22;67.48;99441.84;5059838;28;20181;-71
2021/03/13 00:36:25;;;;;;;6.80;6.10;;;;;;;6.39;66.35;99444.56;5059493;28;20173;-71
2021/03/13 00:38:50;;;;;;;5.77;5.20;;;;;;;6.32;67.62;99453.13;5059707;28;20178;-71
2021/03/13 00:41:15;;;;;;;5.80;5.20;;;;;;;6.35;66.69;99453.16;5059256;28;20450;-71
2021/03/13 00:43:41;;;;;;;7.00;6.30;;;;;;;6.18;67.08;99459.09;5059245;28;20197;-72
2021/03/13 00:46:06;;;;;;;6.70;5.70;;;;;;;6.12;68.88;99448.69;5058942;28;20177;-71
2021/03/13 00:48:31;;;;;;;6.23;5.63;;;;;;;5.87;68.14;99456.25;5059114;28;20184;-71
2021/03/13 00:50:56;;;;;;;6.17;5.67;;;;;;;5.99;68.93;99454.63;5058893;28;20296;-71
2021/03/13 00:53:22;;;;;;;7.90;5.90;;;;;;;6.16;67.68;99458.22;5059462;28;20464;-71
2021/03/13 00:55:47;;;;;;;6.20;5.60;;;;;;;6.17;67.47;99456.47;5059086;28;20555;-71
2021/03/13 00:58:13;;;;;;;5.77;5.20;;;;;;;5.98;67.78;99458.06;5059385;28;20268;-71
2021/03/13 01:00:39;;;;;;;7.47;5.67;;;;;;;5.81;68.18;99453.59;5059502;28;20244;-72
2021/03/13 01:03:05;;;;;;;6.80;5.53;;;;;;;6.07;66.82;99446.09;5058627;28;20256;-71
2021/03/13 01:05:31;;;;;;;6.77;5.33;;;;;;;5.85;67.12;99446.75;5058798;28;20682;-71
2021/03/13 01:07:56;;;;;;;7.77;6.73;;;;;;;5.71;67.63;99450.06;5059079;28;20408;-71
2021/03/13 01:10:35;;;;;;;6.93;5.50;;;;;;;5.52;68.53;99443.00;5058638;28;20203;-70
2021/03/13 01:13:02;;;;;;;5.80;4.70;;;;;;;5.74;67.92;99444.91;5058467;28;20197;-70
2021/03/13 01:15:28;;;;;;;8.53;6.47;;;;;;;5.59;68.50;99439.63;5058819;28;20420;-71
2021/03/13 01:17:53;;;;;;;5.10;4.50;;;;;;;5.28;69.40;99447.09;5058812;28;20419;-72
2021/03/13 01:20:20;;;;;;;4.70;4.30;;;;;;;5.60;68.32;99443.94;5059209;28;20683;-71
2021/03/13 01:22:46;;;;;;;7.13;4.23;;;;;;;5.67;67.52;99437.97;5058620;28;20472;-70
2021/03/13 01:25:12;;;;;;;4.80;4.30;;;;;;;5.62;68.26;99447.41;5058594;28;20454;-70
2021/03/13 01:27:38;;;;;;;6.70;4.60;;;;;;;5.92;67.41;99433.00;5063333;28;20202;-71
2021/03/13 01:30:05;;;;;;;6.93;4.70;;;;;;;5.72;67.16;99433.72;5060651;28;20416;-71
2021/03/13 01:32:31;;;;;;;7.07;4.73;;;;;;;5.79;67.72;99426.00;5058109;28;20213;-70
2021/03/13 01:34:56;;;;;;;5.10;4.70;;;;;;;5.65;67.40;99423.31;5059214;28;20423;-71
2021/03/13 01:37:21;;;;;;;5.67;4.60;;;;;;;5.33;68.76;99427.34;5058322;28;20177;-72
2021/03/13 01:39:47;;;;;;;4.93;4.53;;;;;;;5.86;67.55;99422.63;5058710;28;20177;-71
2021/03/13 01:42:13;;;;;;;5.77;5.17;;;;;;;5.13;68.68;99429.72;5058745;28;20170;-72
2021/03/13 01:44:38;;;;;;;4.53;4.13;;;;;;;5.36;69.60;99422.19;5058373;28;20416;-70
2021/03/13 01:47:04;;;;;;;4.30;3.90;;;;;;;5.36;68.14;99417.03;5058476;28;20173;-71
2021/03/13 01:49:31;;;;;;;4.20;3.90;;;;;;;5.46;68.41;99407.63;5060449;28;20221;-71
2021/03/13 01:51:57;;;;;;;4.37;3.97;;;;;;;5.32;67.64;99415.25;5062562;28;20567;-72
2021/03/13 01:54:23;;;;;;;6.60;4.27;;;;;;;6.14;65.58;99404.72;5058125;28;20419;-71
2021/03/13 01:56:49;;;;;;;4.80;3.90;;;;;;;5.77;67.19;99397.53;5057932;28;20292;-72
2021/03/13 01:59:16;;;;;;;5.83;3.70;;;;;;;5.59;66.47;99408.59;5058119;28;20465;-71
2021/03/13 02:01:42;;;;;;;5.33;3.50;;;;;;;5.67;65.86;99406.94;5057294;28;20423;-72
2021/03/13 02:04:07;;;;;;;6.37;3.57;;;;;;;5.07;67.80;99416.72;5060335;28;20408;-72
2021/03/13 02:06:33;;;;;;;6.97;4.00;;;;;;;5.44;67.28;99408.47;5062436;28;20264;-72
2021/03/13 02:09:26;;;;;;;5.20;3.97;;;;;;;5.23;67.54;99412.59;5062119;28;20219;-71
2021/03/13 02:12:03;;;;;;;3.67;3.30;;;;;;;5.15;68.26;99402.16;5062070;28;20247;-73
2021/03/13 02:14:31;;;;;;;7.50;4.37;;;;;;;5.32;67.53;99392.00;5062374;28;20411;-71
2021/03/13 02:17:16;;;;;;;6.70;3.73;;;;;;;5.34;67.58;99405.78;5062606;28;20804;-73
2021/03/13 02:20:08;;;;;;;5.63;3.57;;;;;;;5.36;67.52;99396.34;5062141;28;20550;-71
2021/03/13 02:22:39;;;;;;;4.73;3.90;;;;;;;5.21;68.83;99397.06;5061046;28;20423;-71
2021/03/13 02:25:12;;;;;;;5.20;4.63;;;;;;;5.74;67.07;99394.94;5061281;28;20412;-71
2021/03/13 02:27:41;;;;;;;4.53;4.07;;;;;;;5.39;68.48;99392.94;5061899;28;20483;-72
2021/03/13 02:30:18;;;;;;;6.00;4.37;;;;;;;5.52;67.51;99392.19;5061319;28;20427;-72
2021/03/13 02:32:52;;;;;;;5.40;4.70;;;;;;;5.45;68.10;99389.53;5061106;28;20550;-71
2021/03/13 02:35:20;;;;;;;6.73;5.57;;;;;;;5.44;68.74;99383.50;5061046;28;20606;-71
2021/03/13 02:37:48;;;;;;;7.57;5.57;;;;;;;5.45;68.15;99381.75;5061927;28;20422;-72
2021/03/13 02:40:16;;;;;;;6.33;5.57;;;;;;;5.46;68.79;99378.34;5061364;28;20442;-71
2021/03/13 02:43:03;;;;;;;6.80;6.10;;;;;;;5.70;67.71;99370.75;5061880;28;20408;-71
2021/03/13 02:45:30;;;;;;;7.77;6.27;;;;;;;5.78;67.98;99367.34;5060624;28;20725;-71
2021/03/13 02:47:57;;;;;;;15.37;6.93;;;;;;;5.54;69.05;99358.59;5060815;28;20679;-72
2021/03/13 02:50:22;;;;;;;7.67;6.70;;;;;;;5.97;66.46;99358.03;5060771;28;20415;-72
2021/03/13 02:52:50;;;;;;;18.70;9.43;;;;;;;5.98;67.38;99352.88;5060743;28;20530;-71
2021/03/13 02:55:17;;;;;;;10.90;7.70;;;;;;;6.10;66.07;99351.22;5061316;28;20430;-72
2021/03/13 02:57:45;;;;;;;10.33;7.53;;;;;;;6.22;66.54;99352.16;5061462;28;20461;-71
2021/03/13 03:00:15;;;;;;;13.13;7.73;;;;;;;5.62;69.89;99348.31;5061498;28;20421;-71
2021/03/13 03:02:41;;;;;;;9.60;7.40;;;;;;;6.03;68.29;99340.81;5061010;28;20408;-72
2021/03/13 03:05:07;;;;;;;11.87;7.90;;;;;;;5.95;67.36;99336.44;5060448;28;20466;-71
2021/03/13 03:07:33;;;;;;;9.20;8.20;;;;;;;5.90;67.56;99339.00;5060440;28;20554;-71
2021/03/13 03:09:59;;;;;;;9.10;8.13;;;;;;;6.40;66.42;99330.66;5061457;28;20458;-72
2021/03/13 03:12:25;;;;;;;10.80;7.60;;;;;;;6.27;66.53;99320.25;5060164;28;20467;-70
2021/03/13 03:14:51;;;;;;;14.27;7.60;;;;;;;6.04;67.41;99324.44;5059637;28;20903;-71
2021/03/13 03:17:17;;;;;;;15.10;7.80;;;;;;;6.32;66.86;99311.66;5060137;28;20182;-71
2021/03/13 03:19:44;;;;;;;11.37;8.20;;;;;;;6.08;67.73;99312.41;5060259;28;20419;-71
2021/03/13 03:22:09;;;;;;;11.20;8.50;;;;;;;6.25;66.71;99304.69;5060201;28;20423;-73
2021/03/13 03:24:35;;;;;;;15.00;8.93;;;;;;;6.14;67.55;99308.97;5060656;28;20400;-71
2021/03/13 03:27:00;;;;;;;15.07;9.53;;;;;;;6.50;66.58;99299.63;5060610;28;20263;-71
2021/03/13 03:29:28;;;;;;;15.93;9.83;;;;;;;6.18;67.45;99284.84;5060974;28;20176;-71
2021/03/13 03:31:54;;;;;;;15.57;8.67;;;;;;;6.24;67.53;99292.63;5061164;28;20323;-71
2021/03/13 03:34:19;;;;;;;14.23;9.50;;;;;;;6.57;66.76;99288.41;5061034;28;20497;-70
2021/03/13 03:36:45;;;;;;;13.60;8.70;;;;;;;6.54;66.61;99289.25;5060758;28;20184;-71
2021/03/13 03:39:10;;;;;;;11.93;9.60;;;;;;;6.46;67.41;99290.97;5061058;28;20169;-71
2021/03/13 03:41:37;;;;;;;10.53;7.97;;;;;;;6.45;66.94;99286.66;5060403;28;20170;-73
2021/03/13 03:44:09;;;;;;;10.53;8.87;;;;;;;6.19;69.05;99286.56;5059897;28;20165;-72
2021/03/13 03:46:36;;;;;;;10.53;9.03;;;;;;;6.09;68.71;99284.78;5060363;28;20404;-73
2021/03/13 03:49:04;;;;;;;14.43;8.90;;;;;;;6.57;67.97;99278.06;5064795;28;20435;-71
2021/03/13 03:51:29;;;;;;;17.33;9.63;;;;;;;6.51;69.11;99276.31;5060611;28;20463;-71
2021/03/13 03:53:55;;;;;;;14.03;8.73;;;;;;;6.47;67.46;99263.34;5060796;28;20474;-71
2021/03/13 03:56:22;;;;;;;14.50;9.00;;;;;;;6.31;67.96;99265.06;5059586;28;20169;-71
2021/03/13 03:58:48;;;;;;;14.33;9.13;;;;;;;6.34;67.83;99260.72;5059479;28;20162;-70
2021/03/13 04:01:14;;;;;;;12.93;9.17;;;;;;;6.37;68.50;99254.69;5060502;28;20400;-71
2021/03/13 04:03:51;;;;;;;10.70;8.20;;;;;;;6.57;67.50;99254.75;5059337;28;20435;-71
2021/03/13 04:06:16;;;;;;;10.43;8.60;;;;;;;6.65;67.09;99250.44;5059555;28;20439;-73
2021/03/13 04:08:43;;;;;;;16.90;8.80;;;;;;;6.63;68.12;99239.25;5060109;28;20845;-72
2021/03/13 04:11:12;;;;;;;16.60;8.77;;;;;;;6.84;67.09;99238.38;5059633;28;20186;-72
2021/03/13 04:13:38;;;;;;;11.00;8.20;;;;;;;6.58;68.69;99244.41;5059426;28;20711;-71
2021/03/13 04:16:03;;;;;;;13.07;8.50;;;;;;;6.72;67.39;99239.25;5059101;28;20416;-72
2021/03/13 04:18:29;;;;;;;11.23;8.57;;;;;;;6.44;69.46;99237.47;5059861;28;20162;-71
2021/03/13 04:20:54;;;;;;;12.93;8.20;;;;;;;6.30;69.69;99238.28;5059258;28;20170;-71
2021/03/13 04:23:22;;;;;;;10.77;8.60;;;;;;;6.44;68.91;99232.28;5042203;28;20531;-71
2021/03/13 04:25:51;;;;;;;10.67;8.67;;;;;;;6.76;67.10;99223.72;5058860;28;20221;-72
2021/03/13 04:28:18;;;;;;;12.57;8.87;;;;;;;6.81;67.70;99225.44;5059735;28;20416;-72
2021/03/13 04:30:44;;;;;;;14.17;9.40;;;;;;;6.35;68.44;99218.47;5058815;28;20423;-71
2021/03/13 04:33:09;;;;;;;17.03;9.20;;;;;;;6.65;67.66;99214.19;5058641;28;20456;-71
2021/03/13 04:35:35;;;;;;;13.00;10.07;;;;;;;6.65;67.84;99208.16;5059187;28;20180;-71
2021/03/13 04:38:01;;;;;;;12.73;10.10;;;;;;;6.77;67.75;99202.13;5058735;28;20169;-72
2021/03/13 04:40:26;;;;;;;16.20;11.47;;;;;;;6.71;67.70;99196.09;5059319;28;20166;-70
2021/03/13 04:42:52;;;;;;;14.93;10.83;;;;;;;6.66;67.83;99190.03;5059547;28;20567;-71
2021/03/13 04:45:18;;;;;;;15.90;11.30;;;;;;;6.58;69.69;99191.75;5058382;28;20188;-72
2021/03/13 04:47:45;;;;;;;15.70;11.43;;;;;;;6.43;68.96;99191.72;5058356;28;20409;-72
2021/03/13 04:50:13;;;;;;;15.40;11.10;;;;;;;6.84;67.76;99180.53;5060117;28;20404;-74
2021/03/13 04:52:38;;;;;;;16.70;11.13;;;;;;;6.76;68.61;99175.34;5062096;28;20461;-72
2021/03/13 04:55:05;;;;;;;17.33;11.80;;;;;;;6.69;67.09;99174.50;5062141;28;20416;-71
2021/03/13 04:57:31;;;;;;;13.60;11.47;;;;;;;6.63;67.76;99171.91;5063299;28;20184;-72
2021/03/13 04:59:56;;;;;;;13.83;11.53;;;;;;;6.17;69.87;99169.25;5061819;28;20408;-72
2021/03/13 05:02:21;;;;;;;19.13;11.93;;;;;;;6.48;69.05;99158.94;5061518;28;20169;-71
2021/03/13 05:04:47;;;;;;;22.47;11.67;;;;;;;6.51;68.86;99164.16;5062309;28;20200;-71
2021/03/13 05:07:12;;;;;;;16.07;11.43;;;;;;;5.95;70.06;99152.78;5062553;28;20173;-70
2021/03/13 05:09:37;;;;;;;17.47;12.27;;;;;;;6.25;69.57;99157.19;5062895;28;20223;-71
2021/03/13 05:12:03;;;;;;;18.53;13.63;;;;;;;6.82;67.70;99148.59;5063202;28;20189;-70
2021/03/13 05:14:28;;;;;;;20.20;12.77;;;;;;;6.40;69.28;99156.38;5062371;28;20292;-71
2021/03/13 05:16:53;;;;;;;18.50;12.60;;;;;;;5.99;69.81;99145.06;5061419;28;20192;-71
2021/03/13 05:19:19;;;;;;;18.07;13.30;;;;;;;6.60;68.31;99140.81;5062714;28;20166;-71
2021/03/13 05:21:44;;;;;;;14.73;13.00;;;;;;;6.34;69.40;99122.72;5061908;28;20184;-72
2021/03/13 05:24:09;;;;;;;17.23;12.40;;;;;;;6.02;70.34;99121.81;5061600;28;20450;-71
2021/03/13 05:26:35;;;;;;;16.63;12.87;;;;;;;6.34;69.61;99112.34;5060507;28;20603;-72
2021/03/13 05:29:00;;;;;;;18.67;12.60;;;;;;;6.65;69.10;99108.03;5059859;28;20193;-71
2021/03/13 05:31:25;;;;;;;14.10;12.17;;;;;;;7.22;66.13;99099.28;5058745;28;20225;-71
2021/03/13 05:33:51;;;;;;;19.17;14.20;;;;;;;6.40;68.84;99104.59;5058467;28;20170;-70
2021/03/13 05:36:16;;;;;;;17.97;13.60;;;;;;;6.20;70.16;99100.25;5058976;28;20223;-70
2021/03/13 05:38:41;;;;;;;17.60;12.80;;;;;;;6.49;68.94;99093.38;5058248;28;20224;-70
2021/03/13 05:41:07;;;;;;;15.33;13.67;;;;;;;6.24;70.37;99083.03;5058270;28;20166;-71
2021/03/13 05:43:33;;;;;;;17.23;13.60;;;;;;;6.11;69.94;99087.31;5057894;28;20174;-70
2021/03/13 05:46:01;;;;;;;20.40;13.40;;;;;;;6.40;68.70;99076.97;5063282;28;20547;-71
2021/03/13 05:48:26;;;;;;;19.27;13.53;;;;;;;6.78;69.15;99063.97;5059197;28;20422;-71
2021/03/13 05:50:53;;;;;;;19.73;13.23;;;;;;;6.34;69.34;99055.41;5057370;28;20661;-72
2021/03/13 05:53:18;;;;;;;19.10;14.60;;;;;;;6.09;71.00;99054.53;5058707;28;20244;-71
2021/03/13 05:55:44;;;;;;;17.07;14.07;;;;;;;6.48;70.70;99045.03;5058239;28;20801;-72
2021/03/13 05:58:10;;;;;;;18.00;14.03;;;;;;;6.91;68.65;99039.78;5057617;28;20173;-71
2021/03/13 06:00:36;;;;;;;16.57;11.70;;;;;;;6.53;70.54;99032.97;5058493;28;20169;-71
2021/03/13 06:03:01;;;;;;;22.40;14.60;;;;;;;6.89;69.09;99029.41;5058002;28;20174;-71
2021/03/13 06:05:27;;;;;;;21.40;13.63;;;;;;;6.68;68.56;99017.38;5057952;28;20800;-71
2021/03/13 06:07:53;;;;;;;17.50;12.67;;;;;;;6.50;70.86;99020.88;5058604;28;20193;-72
2021/03/13 06:10:19;;;;;;;15.97;12.30;;;;;;;6.29;69.78;99008.84;5058292;28;20169;-71
2021/03/13 06:12:44;;;;;;;17.53;13.00;;;;;;;6.85;69.97;98998.38;5057461;28;20486;-71
2021/03/13 06:15:10;;;;;;;15.97;13.10;;;;;;;7.02;69.12;98993.09;5058781;28;20181;-72
2021/03/13 06:17:56;;;;;;;20.00;13.50;;;;;;;6.88;69.34;98982.81;5058590;28;20526;-71
2021/03/13 06:20:28;;;;;;;18.30;13.50;;;;;;;6.92;69.51;98976.75;5058385;28;20419;-70
2021/03/13 06:22:54;;;;;;;16.23;11.83;;;;;;;6.78;70.05;98973.34;5057898;28;20785;-71
2021/03/13 06:25:28;;;;;;;15.07;11.80;;;;;;;6.71;69.75;98972.50;5057062;28;20455;-71
2021/03/13 06:28:19;;;;;;;16.97;11.80;;;;;;;7.15;69.28;98953.31;5057522;28;20239;-71
2021/03/13 06:30:49;;;;;;;14.03;10.57;;;;;;;6.48;70.73;98957.91;5058481;28;20519;-71
2021/03/13 06:33:26;;;;;;;17.53;12.27;;;;;;;7.22;69.86;98951.56;5057955;28;20490;-71
2021/03/13 06:35:56;;;;;;;12.70;10.93;;;;;;;6.74;70.81;98938.84;5058130;28;20436;-71
2021/03/13 06:38:26;;;;;;;13.07;10.23;;;;;;;6.09;73.33;98930.34;5057652;28;20690;-71
2021/03/13 06:40:53;;;;;;;16.73;11.40;;;;;;;6.72;71.56;98931.06;5058073;28;20786;-72
2021/03/13 06:43:29;;;;;;;16.37;11.37;;;;;;;6.94;71.37;98912.84;5058217;28;20416;-71
2021/03/13 06:46:06;;;;;;;12.33;9.03;;;;;;;6.57;72.25;98911.25;5059753;28;20412;-71
2021/03/13 06:48:35;;;;;;;13.53;10.07;;;;;;;6.82;70.65;98910.28;5061712;28;20411;-71
2021/03/13 06:51:13;;;;;;;13.90;9.90;;;;;;;7.22;70.48;98894.53;5060286;28;20447;-72
2021/03/13 06:53:39;;;;;;;11.27;10.17;;;;;;;6.90;71.19;98892.97;5060883;28;20416;-71
2021/03/13 06:56:11;;;;;;;14.37;9.13;;;;;;;6.62;71.75;98882.78;5061393;28;20486;-71
2021/03/13 06:58:37;;;;;;;13.07;9.30;;;;;;;7.32;70.15;98869.41;5061299;28;20251;-71
2021/03/13 07:01:07;;;;;;;11.60;9.40;;;;;;;6.35;72.68;98869.06;5060346;28;20817;-71
2021/03/13 07:03:33;;;;;;;10.13;8.90;;;;;;;6.03;74.79;98875.19;5061250;28;20414;-72
2021/03/13 07:05:59;;;;;;;11.00;9.00;;;;;;;6.49;72.88;98848.28;5060407;28;20431;-72
2021/03/13 07:08:30;;;;;;;11.40;9.20;;;;;;;7.05;70.29;98850.59;5061654;28;20412;-72
2021/03/13 07:11:08;;;;;;;8.80;7.80;;;;;;;6.78;70.99;98839.53;5060840;28;20211;-71
2021/03/13 07:13:35;;;;;;;10.73;8.40;;;;;;;6.80;71.98;98830.00;5061019;28;20408;-71
2021/03/13 07:16:19;;;;;;;14.97;7.90;;;;;;;6.84;71.63;98828.28;5060884;28;20408;-72
2021/03/13 07:18:45;;;;;;;9.03;7.77;;;;;;;6.94;71.29;98822.19;5061447;28;20829;-71
2021/03/13 07:21:10;;;;;;;9.13;7.40;;;;;;;6.57;71.69;98827.56;5060081;28;20422;-71
2021/03/13 07:23:36;;;;;;;10.20;7.20;;;;;;;6.89;71.29;98805.81;5060344;28;20415;-71
2021/03/13 07:26:02;;;;;;;9.50;7.33;;;;;;;6.63;70.80;98805.94;5060779;28;20213;-72
2021/03/13 07:28:28;;;;;;;8.93;7.43;;;;;;;6.62;73.40;98799.91;5060546;28;20670;-71
2021/03/13 07:30:54;;;;;;;7.67;6.97;;;;;;;6.46;73.18;98798.28;5060056;28;20453;-71
2021/03/13 07:33:20;;;;;;;10.70;6.77;;;;;;;6.38;72.34;98794.00;5060684;28;20285;-72
2021/03/13 07:35:51;;;;;;;7.77;6.97;;;;;;;6.73;72.80;98782.56;5060052;28;20813;-70
2021/03/13 07:38:17;;;;;;;7.50;6.70;;;;;;;6.34;73.79;98781.94;5061298;28;20423;-68
2021/03/13 07:40:45;;;;;;;7.63;6.80;;;;;;;6.61;73.79;98764.53;5074053;28;20526;-72
2021/03/13 07:43:12;;;;;;;7.83;6.90;;;;;;;6.55;73.51;98765.44;5081719;28;20419;-70
2021/03/13 07:45:39;;;;;;;8.30;7.10;;;;;;;6.13;74.30;98758.75;5080742;28;20407;-69
2021/03/13 07:48:06;;;;;;;8.63;7.03;;;;;;;6.61;73.87;98745.56;5080349;28;20855;-69
2021/03/13 07:50:32;;;;;;;8.70;6.20;;;;;;;6.40;74.01;98745.69;5080553;28;20458;-69
2021/03/13 07:52:57;;;;;;;8.80;6.83;;;;;;;6.36;73.76;98728.44;5079783;28;20494;-70
2021/03/13 07:55:24;;;;;;;7.83;6.63;;;;;;;6.77;74.07;98729.03;5079484;28;20172;-70
2021/03/13 07:57:50;;;;;;;7.40;6.70;;;;;;;6.42;73.39;98727.53;5079537;28;20252;-70
2021/03/13 08:00:16;;;;;;;7.50;6.30;;;;;;;6.40;74.36;98706.84;5080757;28;20468;-70
2021/03/13 08:02:45;;;;;;;6.33;5.73;;;;;;;6.42;73.19;98691.31;5078618;28;20411;-71
2021/03/13 08:05:17;;;;;;;5.60;4.77;;;;;;;6.30;73.90;98699.16;5079980;28;20177;-70
2021/03/13 08:07:51;;;;;;;5.90;5.17;;;;;;;6.20;73.95;98680.25;5080047;28;20692;-70
2021/03/13 08:10:54;;;;;;;5.33;4.83;;;;;;;6.09;74.95;98679.44;5079984;28;20410;-70
2021/03/13 08:13:28;;;;;;;8.77;4.80;;;;;;;5.95;74.14;98679.47;5079907;28;20474;-71
2021/03/13 08:16:09;;;;;;;4.60;4.10;;;;;;;6.25;75.00;98665.53;5080001;28;20422;-71
2021/03/13 08:18:45;;;;;;;5.70;4.37;;;;;;;6.66;73.29;98668.72;5079694;28;20415;-71
2021/03/13 08:21:19;;;;;;;5.73;4.87;;;;;;;6.35;72.52;98654.25;5079652;28;20444;-70
2021/03/13 08:23:59;;;;;;;4.90;4.40;;;;;;;6.62;74.44;98654.94;5079987;28;20460;-70
2021/03/13 08:26:33;;;;;;;4.60;4.20;;;;;;;6.81;72.97;98657.38;5079556;28;20458;-70
2021/03/13 08:28:59;;;;;;;4.10;3.77;;;;;;;6.67;74.09;98648.00;5079383;28;20418;-72
2021/03/13 08:31:25;;;;;;;3.90;3.60;;;;;;;6.59;73.39;98623.91;5079361;28;20450;-71
2021/03/13 08:33:53;;;;;;;5.73;3.23;;;;;;;6.09;73.02;98620.81;5078685;28;20471;-70
2021/03/13 08:36:20;;;;;;;3.60;3.30;;;;;;;6.54;73.73;98633.44;5079483;28;20165;-70
2021/03/13 08:38:53;;;;;;;4.20;3.47;;;;;;;6.26;74.49;98602.56;5079523;28;20684;-71
2021/03/13 08:41:40;;;;;;;3.50;3.20;;;;;;;6.63;73.92;98594.50;5079102;28;20452;-71
2021/03/13 08:44:06;;;;;;;3.17;2.97;;;;;;;6.54;74.21;98582.50;5079441;28;20388;-71
2021/03/13 08:47:03;;;;;;;3.00;2.80;;;;;;;6.70;73.05;98572.88;5079204;28;20854;-73
2021/03/13 08:49:29;;;;;;;3.70;3.40;;;;;;;7.39;70.86;98557.44;5078749;28;20430;-70
2021/03/13 08:52:06;;;;;;;4.20;3.70;;;;;;;6.97;72.46;98564.81;5078787;28;20708;-69
2021/03/13 08:54:40;;;;;;;4.07;3.67;;;;;;;6.94;72.99;98555.38;5079174;28;20452;-69
2021/03/13 08:57:16;;;;;;;3.47;3.17;;;;;;;6.65;72.52;98540.97;5079171;28;20403;-69
2021/03/13 08:59:43;;;;;;;3.83;3.40;;;;;;;7.34;72.10;98541.91;5079033;28;20407;-70
2021/03/13 09:02:17;;;;;;;4.00;3.70;;;;;;;6.37;73.53;98536.06;5078752;28;20709;-70
2021/03/13 09:04:50;;;;;;;4.07;3.70;;;;;;;6.99;72.46;98519.88;5078788;28;20418;-68
2021/03/13 09:07:17;;;;;;;3.77;3.30;;;;;;;6.71;73.07;98514.16;5078654;28;20655;-69
2021/03/13 09:09:42;;;;;;;4.10;3.70;;;;;;;6.90;74.15;98523.44;5078706;28;20411;-69
2021/03/13 09:12:12;;;;;;;4.60;3.80;;;;;;;7.62;71.83;98522.53;5078975;28;20446;-69
2021/03/13 09:14:43;;;;;;;3.80;3.50;;;;;;;7.46;71.84;98511.56;5078734;28;20180;-69
2021/03/13 09:17:13;;;;;;;3.70;3.40;;;;;;;7.22;72.32;98534.31;5078849;28;20522;-69
2021/03/13 09:19:39;;;;;;;3.60;3.20;;;;;;;7.49;72.11;98520.13;5077995;28;20488;-68
2021/03/13 09:22:09;;;;;;;3.93;3.60;;;;;;;7.37;72.65;98505.63;5078511;28;20437;-69
2021/03/13 09:24:35;;;;;;;3.70;3.40;;;;;;;7.68;71.67;98515.53;5079142;28;20662;-70
2021/03/13 09:27:01;;;;;;;4.70;3.10;;;;;;;7.69;71.99;98516.41;5078460;28;20466;-68
2021/03/13 09:29:34;;;;;;;3.50;3.20;;;;;;;7.78;71.79;98497.25;5079570;28;20473;-68
2021/03/13 09:32:02;;;;;;;3.60;3.30;;;;;;;7.71;72.02;98494.75;5084970;28;20927;-68
2021/03/13 09:34:29;;;;;;;4.63;3.20;;;;;;;7.78;71.92;98505.03;5081641;28;20411;-67
2021/03/13 09:36:55;;;;;;;3.60;3.30;;;;;;;7.98;71.78;98507.31;5081453;28;20442;-67
2021/03/13 09:39:30;;;;;;;3.27;3.00;;;;;;;7.65;71.90;98525.13;5078991;28;20419;-71
2021/03/13 09:42:22;;;;;;;3.60;3.40;;;;;;;7.90;71.81;98525.59;5078793;28;20462;-71
2021/03/13 09:44:53;;;;;;;3.80;3.50;;;;;;;8.05;71.05;98527.97;5078802;28;20473;-70
2021/03/13 09:47:28;;;;;;;2.90;2.63;;;;;;;6.81;73.73;98525.28;5078510;28;20404;-71
2021/03/13 09:49:55;;;;;;;4.10;2.87;;;;;;;6.79;75.30;98507.16;5077717;28;20431;-70
2021/03/13 09:52:28;;;;;;;3.23;2.93;;;;;;;7.04;74.14;98510.34;5078379;28;20469;-70
2021/03/13 09:55:18;;;;;;;3.00;2.80;;;;;;;7.01;72.72;98525.03;5078386;28;20421;-68
2021/03/13 09:57:48;;;;;;;2.93;2.73;;;;;;;7.22;71.73;98519.59;5078542;28;20404;-70
2021/03/13 10:00:20;;;;;;;5.97;2.90;;;;;;;7.13;71.07;98534.41;5078842;28;20813;-68
2021/03/13 10:02:46;;;;;;;2.60;2.40;;;;;;;7.59;68.41;98528.66;5078017;28;20403;-68
2021/03/13 10:05:15;;;;;;;2.83;2.30;;;;;;;7.31;67.09;98521.22;5078835;28;20426;-69
2021/03/13 10:07:43;;;;;;;2.47;2.27;;;;;;;7.12;66.11;98511.97;5079290;28;20166;-68
2021/03/13 10:10:10;;;;;;;2.83;2.23;;;;;;;7.73;64.57;98518.91;5079069;28;20404;-67
2021/03/13 10:12:43;;;;;;;3.60;2.57;;;;;;;7.46;64.58;98507.22;5077950;28;20455;-69
2021/03/13 10:15:26;;;;;;;4.87;3.60;;;;;;;7.47;64.87;98516.72;5078390;28;20407;-68
2021/03/13 10:17:58;;;;;;;3.27;2.50;;;;;;;9.16;60.49;98498.28;5078367;28;20419;-69
2021/03/13 10:20:29;;;;;;;3.50;2.60;;;;;;;11.16;54.50;98489.03;5078105;28;20418;-69
2021/03/13 10:22:55;;;;;;;3.87;2.43;;;;;;;15.66;51.50;98470.25;5077577;28;20482;-76
2021/03/13 10:25:21;;;;;;;3.20;2.90;;;;;;;17.60;37.42;98463.88;5079550;28;20473;-70
2021/03/13 10:27:46;;;;;;;3.87;3.23;;;;;;;13.82;45.88;98479.06;5080780;28;20189;-70
2021/03/13 10:30:12;;;;;;;4.03;3.10;;;;;;;14.01;45.92;98475.72;5081568;28;20530;-70
2021/03/13 10:32:39;;;;;;;4.60;3.10;;;;;;;13.65;46.61;98476.28;5081614;28;20425;-68
2021/03/13 10:35:09;;;;;;;5.57;3.00;;;;;;;13.17;47.10;98469.41;5081720;28;20806;-70
2021/03/13 10:37:44;;;;;;;3.60;3.10;;;;;;;13.75;47.07;98461.06;5082288;28;20412;-69
2021/03/13 10:40:16;;;;;;;6.73;2.63;;;;;;;14.23;46.16;98459.13;5080865;28;20403;-70
2021/03/13 10:42:41;;;;;;;5.23;2.97;;;;;;;13.59;46.50;98450.34;5080721;28;20411;-70
2021/03/13 10:45:18;;;;;;;4.17;2.43;;;;;;;13.30;46.72;98465.38;5081668;28;20386;-70
2021/03/13 10:47:44;;;;;;;3.77;3.13;;;;;;;13.63;46.41;98447.53;5081571;28;20200;-69
2021/03/13 10:50:10;;;;;;;4.33;2.60;;;;;;;13.86;46.57;98440.53;5081424;28;20832;-71
2021/03/13 10:52:35;;;;;;;6.50;3.10;;;;;;;14.96;43.26;98448.97;5081121;28;20429;-70
2021/03/13 10:55:01;;;;;;;4.27;3.30;;;;;;;13.89;44.36;98455.28;5080810;28;20173;-69
2021/03/13 10:57:26;;;;;;;5.07;3.93;;;;;;;14.54;44.33;98455.19;5081146;28;20210;-70
2021/03/13 10:59:51;;;;;;;4.90;3.90;;;;;;;13.75;44.77;98451.44;5080446;28;20191;-70
2021/03/13 11:02:17;;;;;;;13.50;8.57;;;;;;;13.57;46.06;98452.16;5081367;28;20162;-71
2021/03/13 11:04:42;;;;;;;8.70;5.07;;;;;;;13.27;45.75;98442.81;5081022;28;20177;-71
2021/03/13 11:07:07;;;;;;;8.03;4.47;;;;;;;13.25;45.61;98447.25;5080900;28;20187;-72
2021/03/13 11:09:33;;;;;;;5.43;3.90;;;;;;;13.24;46.59;98440.31;5081178;28;20161;-71
2021/03/13 11:11:58;;;;;;;5.93;3.77;;;;;;;12.87;45.93;98440.84;5080851;28;20201;-71
2021/03/13 11:14:24;;;;;;;7.03;3.70;;;;;;;12.61;47.17;98435.66;5080804;28;20444;-70
2021/03/13 11:16:49;;;;;;;5.17;3.17;;;;;;;10.98;49.43;98435.69;5081285;28;20184;-70
2021/03/13 11:19:15;;;;;;;8.30;4.70;;;;;;;10.71;51.27;98439.00;5080774;28;20169;-71
2021/03/13 11:21:40;;;;;;;9.30;4.20;;;;;;;10.53;52.13;98442.16;5080525;28;20542;-70
2021/03/13 11:24:06;;;;;;;5.40;3.80;;;;;;;10.95;51.85;98436.63;5081180;28;20173;-70
2021/03/13 11:26:31;;;;;;;6.63;4.00;;;;;;;11.02;52.13;98439.91;5080261;28;20327;-70
2021/03/13 11:28:56;;;;;;;5.13;4.40;;;;;;;11.03;51.99;98431.19;5080007;28;20173;-68
2021/03/13 11:31:22;;;;;;;6.30;3.97;;;;;;;11.27;51.00;98427.84;5080892;28;20479;-69
2021/03/13 11:33:48;;;;;;;4.77;3.90;;;;;;;10.14;54.62;98442.28;5079725;28;20187;-69
2021/03/13 11:36:14;;;;;;;4.33;3.40;;;;;;;9.94;55.96;98439.28;5083069;28;20172;-69
2021/03/13 11:38:39;;;;;;;5.40;3.93;;;;;;;10.36;55.46;98419.16;5081126;28;20460;-72
2021/03/13 11:41:05;;;;;;;5.57;3.60;;;;;;;10.22;55.65;98427.31;5080345;28;20187;-71